Time;durP1;ratioP1;P1;durP2;ratioP2;P2;SDS_P1;SDS_P2;PMS_P1;PMS_P2;Temp;Humidity;BMP_temperature;BMP_pressure;BME280_temperature;BME280_humidity;BME280_pressure;Samples;Min_cycle;Max_cycle;Signal;HPM_P1;HPM_P2
2023/06/03 00:03:02;;;;;;;4.55;1.40;;;;;;;;;;6335609;28;20438;-70
2023/06/03 00:06:07;;;;;;;10.95;1.92;;;;;;;;;;6336067;28;20298;-70
2023/06/03 00:09:12;;;;;;;7.72;1.98;;;;;;;;;;6335581;28;20289;-69
2023/06/03 00:12:17;;;;;;;16.77;1.92;;;;;;;;;;6336189;28;20298;-70
2023/06/03 00:15:24;;;;;;;5.97;1.58;;;;;;;;;;6335612;28;20309;-70
2023/06/03 00:18:29;;;;;;;12.90;2.10;;;;;;;;;;6335884;28;20293;-70
2023/06/03 00:21:36;;;;;;;9.40;1.70;;;;;;;;;;6335190;28;20586;-69
2023/06/03 00:24:41;;;;;;;7.70;1.60;;;;;;;;;;6334555;28;20562;-69
2023/06/03 00:27:49;;;;;;;6.75;1.80;;;;;;;;;;6335678;28;20285;-69
2023/06/03 00:30:55;;;;;;;5.30;2.25;;;;;;;;;;6316797;28;20496;-71
2023/06/03 00:34:01;;;;;;;11.07;1.55;;;;;;;;;;6334928;28;20626;-69
2023/06/03 00:37:06;;;;;;;4.90;1.27;;;;;;;;;;6334825;28;20282;-70
2023/06/03 00:40:12;;;;;;;7.45;1.40;;;;;;;;;;6334618;28;20302;-70
2023/06/03 00:43:17;;;;;;;3.25;1.20;;;;;;;;;;6334778;28;20297;-69
2023/06/03 00:46:24;;;;;;;3.67;1.52;;;;;;;;;;6316536;28;20590;-70
2023/06/03 00:49:29;;;;;;;8.68;1.75;;;;;;;;;;6334393;28;20482;-71
2023/06/03 00:52:36;;;;;;;4.88;1.23;;;;;;;;;;6317049;28;20586;-70
2023/06/03 00:55:41;;;;;;;13.52;1.90;;;;;;;;;;6316376;28;20297;-69
2023/06/03 00:58:46;;;;;;;17.17;2.15;;;;;;;;;;6334422;28;20295;-69
2023/06/03 01:01:53;;;;;;;19.08;2.00;;;;;;;;;;6334794;28;20470;-72
2023/06/03 01:04:58;;;;;;;11.73;2.05;;;;;;;;;;6308661;28;20294;-69
2023/06/03 01:08:09;;;;;;;6.15;1.60;;;;;;;;;;6308983;28;20610;-70
2023/06/03 01:11:21;;;;;;;2.58;1.45;;;;;;;;;;6296967;28;20293;-69
2023/06/03 01:14:33;;;;;;;11.95;1.60;;;;;;;;;;6333859;28;20461;-70
2023/06/03 01:17:45;;;;;;;1.95;1.30;;;;;;;;;;6315261;28;20266;-69
2023/06/03 01:20:51;;;;;;;3.95;1.75;;;;;;;;;;6316053;28;20298;-70
2023/06/03 01:23:57;;;;;;;2.92;1.25;;;;;;;;;;6315478;28;20306;-70
2023/06/03 01:27:03;;;;;;;6.05;1.45;;;;;;;;;;6333731;28;20353;-69
2023/06/03 01:30:10;;;;;;;5.28;1.85;;;;;;;;;;6315630;28;20289;-70
2023/06/03 01:33:16;;;;;;;1.60;1.27;;;;;;;;;;6315944;28;20293;-70
2023/06/03 01:36:23;;;;;;;1.42;1.42;;;;;;;;;;6333685;28;20289;-70
2023/06/03 01:39:30;;;;;;;2.92;1.17;;;;;;;;;;6334633;28;20293;-70
2023/06/03 01:42:36;;;;;;;6.15;1.40;;;;;;;;;;6316301;28;20463;-70
2023/06/03 01:45:42;;;;;;;5.55;1.30;;;;;;;;;;6315548;28;20293;-70
2023/06/03 01:48:48;;;;;;;2.35;1.20;;;;;;;;;;6333549;28;20305;-68
2023/06/03 01:51:53;;;;;;;9.82;2.22;;;;;;;;;;6321003;28;20289;-71
2023/06/03 01:55:00;;;;;;;2.78;1.30;;;;;;;;;;6338167;28;20313;-69
2023/06/03 01:58:07;;;;;;;5.57;1.52;;;;;;;;;;6320580;28;20321;-70
2023/06/03 02:01:13;;;;;;;4.30;1.38;;;;;;;;;;6320350;28;20313;-70
2023/06/03 02:04:19;;;;;;;3.00;1.20;;;;;;;;;;6358397;28;20298;-71
2023/06/03 02:07:25;;;;;;;1.05;1.02;;;;;;;;;;6346458;28;20294;-70
2023/06/03 02:10:32;;;;;;;1.42;1.25;;;;;;;;;;6340648;28;20293;-70
2023/06/03 02:13:37;;;;;;;4.32;1.25;;;;;;;;;;6295882;28;20306;-70
2023/06/03 02:16:43;;;;;;;3.53;1.20;;;;;;;;;;6313671;28;20315;-70
2023/06/03 02:19:48;;;;;;;3.55;1.30;;;;;;;;;;6296137;28;20293;-70
2023/06/03 02:22:53;;;;;;;1.13;1.10;;;;;;;;;;6312617;28;20298;-69
2023/06/03 02:26:01;;;;;;;1.35;1.33;;;;;;;;;;6312436;28;20302;-70
2023/06/03 02:29:08;;;;;;;1.75;1.65;;;;;;;;;;6294348;28;20476;-69
2023/06/03 02:32:13;;;;;;;4.15;1.27;;;;;;;;;;6294999;28;20294;-69
2023/06/03 02:35:18;;;;;;;1.38;1.25;;;;;;;;;;6312544;28;20293;-70
2023/06/03 02:38:24;;;;;;;2.25;1.15;;;;;;;;;;6312642;28;20286;-71
2023/06/03 02:41:31;;;;;;;3.13;1.35;;;;;;;;;;6295546;28;20290;-69
2023/06/03 02:44:37;;;;;;;1.90;1.40;;;;;;;;;;6312411;28;20298;-71
2023/06/03 02:48:02;;;;;;;1.63;1.13;;;;;;;;;;6295511;28;20279;-70
2023/06/03 02:51:08;;;;;;;1.58;1.48;;;;;;;;;;6294106;28;20295;-70
2023/06/03 02:54:13;;;;;;;1.15;1.10;;;;;;;;;;6293683;28;20467;-69
2023/06/03 02:57:22;;;;;;;1.60;1.60;;;;;;;;;;6294603;28;20317;-70
2023/06/03 03:00:27;;;;;;;1.23;1.23;;;;;;;;;;6293109;28;20302;-71
2023/06/03 03:03:35;;;;;;;1.38;1.30;;;;;;;;;;6322730;28;20474;-70
2023/06/03 03:06:41;;;;;;;5.45;1.38;;;;;;;;;;6342320;28;20294;-71
2023/06/03 03:09:47;;;;;;;1.52;1.10;;;;;;;;;;6320973;28;20305;-69
2023/06/03 03:12:53;;;;;;;1.17;1.15;;;;;;;;;;6346876;28;20293;-69
2023/06/03 03:16:00;;;;;;;3.80;1.20;;;;;;;;;;6336580;28;20313;-70
2023/06/03 03:19:07;;;;;;;2.13;1.15;;;;;;;;;;6319371;28;20301;-69
2023/06/03 03:22:12;;;;;;;1.33;1.27;;;;;;;;;;6339838;28;20300;-69
2023/06/03 03:25:18;;;;;;;6.22;1.20;;;;;;;;;;6361945;28;20470;-70
2023/06/03 03:28:26;;;;;;;1.17;1.13;;;;;;;;;;6343806;28;20507;-69
2023/06/03 03:31:34;;;;;;;1.30;1.30;;;;;;;;;;6361673;28;20329;-70
2023/06/03 03:34:41;;;;;;;1.38;1.23;;;;;;;;;;6343610;28;20293;-69
2023/06/03 03:37:47;;;;;;;3.50;1.17;;;;;;;;;;6334920;28;20282;-69
2023/06/03 03:40:52;;;;;;;1.55;1.30;;;;;;;;;;6336362;28;20305;-70
2023/06/03 03:43:59;;;;;;;2.15;1.20;;;;;;;;;;6318947;28;20290;-70
2023/06/03 03:47:06;;;;;;;1.40;1.40;;;;;;;;;;6318375;28;20302;-70
2023/06/03 03:50:28;;;;;;;2.40;1.25;;;;;;;;;;6318429;28;20301;-69
2023/06/03 03:53:36;;;;;;;1.52;1.25;;;;;;;;;;6320598;28;20286;-69
2023/06/03 03:56:55;;;;;;;1.58;1.17;;;;;;;;;;6317113;28;20531;-70
2023/06/03 04:00:06;;;;;;;1.35;1.35;;;;;;;;;;6336000;28;20299;-70
2023/06/03 04:03:19;;;;;;;1.95;1.42;;;;;;;;;;6324450;28;20314;-70
2023/06/03 04:06:32;;;;;;;2.08;1.20;;;;;;;;;;6310164;28;20378;-70
2023/06/03 04:09:39;;;;;;;2.05;1.20;;;;;;;;;;6292953;28;20290;-70
2023/06/03 04:12:46;;;;;;;3.92;1.42;;;;;;;;;;6317599;28;20294;-69
2023/06/03 04:15:53;;;;;;;1.25;1.25;;;;;;;;;;6292558;28;20290;-70
2023/06/03 04:18:58;;;;;;;1.10;1.10;;;;;;;;;;6293140;28;20294;-71
2023/06/03 04:22:04;;;;;;;1.75;1.10;;;;;;;;;;6292395;28;20290;-70
2023/06/03 04:25:11;;;;;;;2.67;1.33;;;;;;;;;;6292147;28;20346;-69
2023/06/03 04:28:35;;;;;;;1.23;1.13;;;;;;;;;;6294026;28;20579;-70
2023/06/03 04:31:41;;;;;;;3.35;1.30;;;;;;;;;;6291834;28;20310;-70
2023/06/03 04:34:51;;;;;;;1.15;1.08;;;;;;;;;;6309637;28;20290;-69
2023/06/03 04:37:57;;;;;;;4.70;1.23;;;;;;;;;;6292326;28;20302;-70
2023/06/03 04:41:03;;;;;;;1.33;1.25;;;;;;;;;;6291987;28;20304;-70
2023/06/03 04:44:11;;;;;;;4.10;1.40;;;;;;;;;;6291545;28;20302;-71
2023/06/03 04:47:17;;;;;;;1.15;1.15;;;;;;;;;;6310110;28;20302;-69
2023/06/03 04:50:24;;;;;;;1.10;1.10;;;;;;;;;;6291686;28;20294;-69
2023/06/03 04:53:31;;;;;;;1.40;1.20;;;;;;;;;;6292403;28;20298;-70
2023/06/03 04:56:36;;;;;;;1.27;1.27;;;;;;;;;;6290455;28;20290;-71
2023/06/03 04:59:43;;;;;;;1.90;1.20;;;;;;;;;;6291381;28;20318;-70
2023/06/03 05:02:56;;;;;;;1.00;0.88;;;;;;;;;;6298980;28;20313;-68
2023/06/03 05:06:10;;;;;;;1.40;1.27;;;;;;;;;;6316613;28;20300;-70
2023/06/03 05:09:18;;;;;;;1.17;1.17;;;;;;;;;;6316272;28;20293;-69
2023/06/03 05:12:25;;;;;;;1.65;1.48;;;;;;;;;;6308999;28;20294;-70
2023/06/03 05:15:33;;;;;;;1.27;1.25;;;;;;;;;;6334178;28;20373;-71
2023/06/03 05:18:40;;;;;;;2.13;1.40;;;;;;;;;;6316409;28;20566;-69
2023/06/03 05:21:46;;;;;;;2.75;1.20;;;;;;;;;;6334803;28;20294;-69
2023/06/03 05:24:51;;;;;;;;;;;;;;;;;;6334069;28;20186;-70
2023/06/03 05:27:56;;;;;;;;;;;;;;;;;;6334737;28;20260;-71
2023/06/03 05:31:10;;;;;;;1.17;1.10;;;;;;;;;;6316057;28;20545;-71
2023/06/03 05:34:16;;;;;;;1.13;1.08;;;;;;;;;;6334432;28;20289;-69
2023/06/03 05:37:23;;;;;;;0.93;0.90;;;;;;;;;;6335595;28;20293;-70
2023/06/03 05:40:28;;;;;;;1.17;1.17;;;;;;;;;;6335607;28;20305;-70
2023/06/03 05:43:33;;;;;;;1.30;1.00;;;;;;;;;;6320901;28;20608;-70
2023/06/03 05:46:39;;;;;;;1.30;1.23;;;;;;;;;;6320452;28;20324;-70
2023/06/03 05:49:46;;;;;;;1.02;1.00;;;;;;;;;;6338213;28;20286;-69
2023/06/03 05:52:51;;;;;;;0.95;0.95;;;;;;;;;;6322044;28;20298;-70
2023/06/03 05:55:56;;;;;;;0.88;0.88;;;;;;;;;;6340645;28;20537;-69
2023/06/03 05:59:04;;;;;;;1.50;1.40;;;;;;;;;;6322479;28;20293;-70
2023/06/03 06:02:15;;;;;;;0.90;0.90;;;;;;;;;;6321550;28;20282;-69
2023/06/03 06:05:22;;;;;;;0.80;0.80;;;;;;;;;;6322014;28;20282;-71
2023/06/03 06:08:28;;;;;;;1.15;0.90;;;;;;;;;;6324202;28;20299;-70
2023/06/03 06:11:34;;;;;;;1.00;1.00;;;;;;;;;;6314976;28;20294;-70
2023/06/03 06:14:39;;;;;;;1.20;0.98;;;;;;;;;;6338990;28;20286;-69
2023/06/03 06:17:45;;;;;;;1.52;1.02;;;;;;;;;;6339469;28;20266;-69
2023/06/03 06:20:53;;;;;;;1.15;1.08;;;;;;;;;;6322041;28;20299;-71
2023/06/03 06:23:58;;;;;;;0.80;0.80;;;;;;;;;;6322123;28;20290;-70
2023/06/03 06:27:05;;;;;;;1.00;1.00;;;;;;;;;;6321185;28;20289;-70
2023/06/03 06:30:14;;;;;;;1.75;1.00;;;;;;;;;;6321455;28;20302;-70
2023/06/03 06:33:20;;;;;;;1.30;1.30;;;;;;;;;;6320541;28;20298;-70
2023/06/03 06:36:42;;;;;;;1.40;0.95;;;;;;;;;;6323040;28;20293;-70
2023/06/03 06:39:56;;;;;;;2.47;1.02;;;;;;;;;;6325408;28;20283;-71
2023/06/03 06:43:21;;;;;;;6.53;0.82;;;;;;;;;;6323288;28;20290;-69
2023/06/03 06:46:35;;;;;;;1.02;1.00;;;;;;;;;;6321777;28;20294;-68
2023/06/03 06:49:41;;;;;;;0.88;0.88;;;;;;;;;;6322334;28;20285;-70
2023/06/03 06:52:48;;;;;;;1.95;1.00;;;;;;;;;;6321988;28;20301;-68
2023/06/03 06:55:54;;;;;;;1.00;1.00;;;;;;;;;;6321288;28;20302;-71
2023/06/03 06:59:05;;;;;;;1.00;1.00;;;;;;;;;;6320452;28;20297;-69
2023/06/03 07:02:12;;;;;;;1.10;1.10;;;;;;;;;;6319218;28;20301;-72
2023/06/03 07:05:17;;;;;;;2.10;0.90;;;;;;;;;;6312306;28;20291;-70
2023/06/03 07:08:25;;;;;;;1.05;1.05;;;;;;;;;;6294831;28;20298;-69
2023/06/03 07:11:35;;;;;;;1.35;1.20;;;;;;;;;;6294188;28;20314;-69
2023/06/03 07:14:41;;;;;;;1.77;0.98;;;;;;;;;;6294862;28;20295;-70
2023/06/03 07:17:50;;;;;;;6.82;1.30;;;;;;;;;;6295464;28;20266;-69
2023/06/03 07:20:56;;;;;;;1.35;1.00;;;;;;;;;;6293909;28;20298;-69
2023/06/03 07:24:06;;;;;;;4.40;1.10;;;;;;;;;;6278109;28;20311;-69
2023/06/03 07:27:13;;;;;;;1.23;1.10;;;;;;;;;;6293959;28;20294;-70
2023/06/03 07:30:18;;;;;;;1.23;1.23;;;;;;;;;;6311323;28;20298;-69
2023/06/03 07:33:27;;;;;;;1.52;1.00;;;;;;;;;;6293687;28;20294;-69
2023/06/03 07:36:35;;;;;;;1.02;1.02;;;;;;;;;;6293748;28;20294;-70
2023/06/03 07:39:43;;;;;;;4.28;0.90;;;;;;;;;;6311143;28;20289;-69
2023/06/03 07:42:50;;;;;;;6.25;1.20;;;;;;;;;;6293643;28;20290;-69
2023/06/03 07:45:55;;;;;;;0.80;0.80;;;;;;;;;;6292750;28;20606;-69
2023/06/03 07:49:01;;;;;;;0.88;0.88;;;;;;;;;;6311156;28;20604;-70
2023/06/03 07:52:06;;;;;;;1.00;1.00;;;;;;;;;;6310159;28;20310;-71
2023/06/03 07:55:13;;;;;;;3.28;1.10;;;;;;;;;;6310879;28;20294;-69
2023/06/03 07:58:19;;;;;;;1.05;1.05;;;;;;;;;;6312524;28;20290;-70
2023/06/03 08:01:26;;;;;;;1.48;1.00;;;;;;;;;;6310800;28;20577;-70
2023/06/03 08:04:34;;;;;;;3.03;1.00;;;;;;;;;;6330332;28;20301;-69
2023/06/03 08:07:40;;;;;;;7.85;0.90;;;;;;;;;;6336122;28;20297;-69
2023/06/03 08:10:48;;;;;;;1.10;1.10;;;;;;;;;;6328799;28;20298;-70
2023/06/03 08:13:56;;;;;;;1.00;1.00;;;;;;;;;;6286207;28;20287;-70
2023/06/03 08:17:05;;;;;;;1.10;1.10;;;;;;;;;;6286229;28;20299;-69
2023/06/03 08:20:12;;;;;;;1.65;1.20;;;;;;;;;;6286240;28;20358;-70
2023/06/03 08:23:18;;;;;;;2.40;1.10;;;;;;;;;;6288013;28;20402;-70
2023/06/03 08:26:25;;;;;;;1.65;1.65;;;;;;;;;;6285184;28;20295;-70
2023/06/03 08:29:30;;;;;;;3.10;1.73;;;;;;;;;;6267144;28;20560;-70
2023/06/03 08:32:36;;;;;;;3.30;1.15;;;;;;;;;;6285158;28;20290;-69
2023/06/03 08:35:41;;;;;;;1.10;1.05;;;;;;;;;;6266065;28;20357;-70
2023/06/03 08:38:46;;;;;;;6.72;1.40;;;;;;;;;;6285119;28;20271;-69
2023/06/03 08:41:55;;;;;;;6.80;1.10;;;;;;;;;;6284767;28;20303;-71
2023/06/03 08:45:04;;;;;;;4.97;1.15;;;;;;;;;;6283994;28;20296;-69
2023/06/03 08:48:22;;;;;;;3.03;1.48;;;;;;;;;;6284487;28;20356;-70
2023/06/03 08:51:27;;;;;;;1.40;0.98;;;;;;;;;;6283623;28;20299;-70
2023/06/03 08:54:34;;;;;;;1.60;1.00;;;;;;;;;;6283699;28;20287;-70
2023/06/03 08:57:46;;;;;;;2.53;1.08;;;;;;;;;;6265906;28;20294;-70
2023/06/03 09:00:55;;;;;;;2.05;0.90;;;;;;;;;;6283847;28;20557;-70
2023/06/03 09:04:02;;;;;;;1.42;1.00;;;;;;;;;;6298395;28;20294;-71
2023/06/03 09:07:09;;;;;;;1.05;0.98;;;;;;;;;;6308621;28;20302;-70
2023/06/03 09:10:16;;;;;;;1.95;1.20;;;;;;;;;;6311245;28;20302;-70
2023/06/03 09:13:24;;;;;;;4.53;1.13;;;;;;;;;;6334442;28;20289;-70
2023/06/03 09:16:29;;;;;;;1.95;1.10;;;;;;;;;;6335136;28;20293;-70
2023/06/03 09:19:35;;;;;;;1.30;1.20;;;;;;;;;;6333667;28;20522;-70
2023/06/03 09:22:42;;;;;;;1.00;0.98;;;;;;;;;;6334062;28;20294;-70
2023/06/03 09:25:47;;;;;;;1.55;1.00;;;;;;;;;;6319993;28;20286;-71
2023/06/03 09:28:54;;;;;;;1.30;1.15;;;;;;;;;;6309348;28;20445;-71
2023/06/03 09:31:59;;;;;;;1.13;1.08;;;;;;;;;;6308601;28;20347;-69
2023/06/03 09:35:05;;;;;;;1.00;1.00;;;;;;;;;;6308992;28;20298;-69
2023/06/03 09:38:14;;;;;;;0.75;0.75;;;;;;;;;;6309829;28;20306;-70
2023/06/03 09:41:20;;;;;;;3.50;1.08;;;;;;;;;;6308844;28;20297;-70
2023/06/03 09:44:41;;;;;;;1.00;1.00;;;;;;;;;;6308276;28;20290;-69
2023/06/03 09:47:47;;;;;;;2.05;1.33;;;;;;;;;;6308125;28;20270;-70
2023/06/03 09:50:52;;;;;;;4.18;1.13;;;;;;;;;;6308238;28;20298;-70
2023/06/03 09:54:11;;;;;;;2.78;1.10;;;;;;;;;;6308665;28;20294;-71
2023/06/03 09:57:16;;;;;;;1.08;0.95;;;;;;;;;;6289878;28;20481;-70
2023/06/03 10:00:23;;;;;;;1.67;1.08;;;;;;;;;;6308092;28;20286;-71
2023/06/03 10:03:33;;;;;;;3.90;1.00;;;;;;;;;;6308663;28;20290;-69
2023/06/03 10:06:39;;;;;;;0.90;0.90;;;;;;;;;;6308170;28;20302;-72
2023/06/03 10:09:47;;;;;;;0.90;0.90;;;;;;;;;;6308467;28;20289;-71
2023/06/03 10:12:52;;;;;;;1.98;1.00;;;;;;;;;;6320190;28;20431;-70
2023/06/03 10:16:01;;;;;;;7.22;1.10;;;;;;;;;;6337853;28;20294;-71
2023/06/03 10:19:06;;;;;;;1.15;1.13;;;;;;;;;;6338439;28;20286;-70
2023/06/03 10:22:15;;;;;;;1.05;1.05;;;;;;;;;;6337012;28;20464;-70
2023/06/03 10:25:20;;;;;;;2.92;1.23;;;;;;;;;;6337796;28;20293;-70
2023/06/03 10:28:26;;;;;;;1.08;1.08;;;;;;;;;;6337822;28;20309;-70
2023/06/03 10:31:34;;;;;;;2.55;1.05;;;;;;;;;;6319746;28;20302;-70
2023/06/03 10:34:43;;;;;;;1.00;1.00;;;;;;;;;;6337287;28;20305;-70
2023/06/03 10:37:48;;;;;;;2.85;1.20;;;;;;;;;;6338291;28;20309;-70
2023/06/03 10:40:54;;;;;;;1.10;1.10;;;;;;;;;;6319627;28;20317;-69
2023/06/03 10:43:59;;;;;;;1.52;1.00;;;;;;;;;;6340175;28;20301;-70
2023/06/03 10:47:08;;;;;;;3.55;1.10;;;;;;;;;;6337499;28;20297;-70
2023/06/03 10:50:18;;;;;;;1.30;1.25;;;;;;;;;;6337178;28;20306;-69
2023/06/03 10:53:32;;;;;;;2.15;1.20;;;;;;;;;;6338062;28;20290;-69
2023/06/03 10:56:39;;;;;;;1.27;1.25;;;;;;;;;;6336443;28;20338;-70
2023/06/03 10:59:46;;;;;;;2.10;1.33;;;;;;;;;;6336921;28;20286;-70
2023/06/03 11:03:06;;;;;;;5.05;1.30;;;;;;;;;;6337440;28;20293;-69
2023/06/03 11:06:39;;;;;;;1.20;1.20;;;;;;;;;;6336747;28;20303;-69
2023/06/03 11:09:45;;;;;;;5.20;1.30;;;;;;;;;;6336693;28;20290;-70
2023/06/03 11:12:51;;;;;;;1.67;1.10;;;;;;;;;;6329303;28;20289;-70
2023/06/03 11:16:00;;;;;;;1.15;1.10;;;;;;;;;;6337150;28;20294;-70
2023/06/03 11:19:28;;;;;;;1.98;1.20;;;;;;;;;;6337853;28;20281;-70
2023/06/03 11:22:47;;;;;;;1.42;1.33;;;;;;;;;;6336557;28;20289;-70
2023/06/03 11:25:52;;;;;;;3.60;1.10;;;;;;;;;;6337238;28;20482;-70
2023/06/03 11:28:57;;;;;;;3.05;1.50;;;;;;;;;;6337183;28;20297;-70
2023/06/03 11:32:13;;;;;;;1.10;1.10;;;;;;;;;;6336307;28;20293;-70
2023/06/03 11:35:30;;;;;;;2.75;1.17;;;;;;;;;;6336409;28;20361;-71
2023/06/03 11:38:59;;;;;;;1.50;1.40;;;;;;;;;;6337044;28;20286;-70
2023/06/03 11:42:08;;;;;;;3.30;1.40;;;;;;;;;;6335410;28;20309;-69
2023/06/03 11:45:27;;;;;;;1.10;1.10;;;;;;;;;;6336052;28;20560;-70
2023/06/03 11:48:37;;;;;;;1.27;1.27;;;;;;;;;;6336298;28;20490;-70
2023/06/03 11:51:44;;;;;;;2.10;1.10;;;;;;;;;;6335987;28;20302;-70
2023/06/03 11:54:49;;;;;;;1.73;1.35;;;;;;;;;;6335794;28;20485;-70
2023/06/03 11:57:56;;;;;;;2.05;1.38;;;;;;;;;;6336518;28;20661;-70
2023/06/03 12:01:08;;;;;;;1.02;1.02;;;;;;;;;;6335763;28;20290;-70
2023/06/03 12:04:13;;;;;;;2.53;1.10;;;;;;;;;;6335207;28;20463;-71
2023/06/03 12:07:20;;;;;;;3.40;1.30;;;;;;;;;;6335969;28;20286;-71
2023/06/03 12:10:25;;;;;;;1.40;1.30;;;;;;;;;;6331260;28;20295;-70
2023/06/03 12:13:39;;;;;;;1.08;1.05;;;;;;;;;;6333072;28;20305;-70
2023/06/03 12:16:45;;;;;;;1.95;1.10;;;;;;;;;;6335429;28;20546;-69
2023/06/03 12:19:51;;;;;;;1.33;1.10;;;;;;;;;;6335910;28;20290;-69
2023/06/03 12:23:02;;;;;;;1.25;1.20;;;;;;;;;;6336137;28;20590;-69
2023/06/03 12:26:07;;;;;;;8.68;1.50;;;;;;;;;;6335624;28;20317;-70
2023/06/03 12:29:14;;;;;;;1.15;1.15;;;;;;;;;;6317373;28;20286;-72
2023/06/03 12:32:19;;;;;;;2.60;1.17;;;;;;;;;;6334826;28;20430;-70
2023/06/03 12:35:26;;;;;;;1.58;1.13;;;;;;;;;;6334861;28;20293;-70
2023/06/03 12:38:32;;;;;;;1.85;1.23;;;;;;;;;;6335259;28;20298;-70
2023/06/03 12:41:37;;;;;;;5.95;1.10;;;;;;;;;;6333974;28;20301;-70
2023/06/03 12:44:48;;;;;;;2.65;1.27;;;;;;;;;;6316449;28;20293;-69
2023/06/03 12:47:54;;;;;;;1.48;1.38;;;;;;;;;;6334768;28;20269;-70
2023/06/03 12:50:59;;;;;;;1.17;1.17;;;;;;;;;;6334880;28;20293;-70
2023/06/03 12:54:07;;;;;;;1.30;1.30;;;;;;;;;;6335255;28;20293;-69
2023/06/03 12:57:12;;;;;;;3.70;1.30;;;;;;;;;;6334886;28;20298;-70
2023/06/03 13:00:20;;;;;;;1.85;1.23;;;;;;;;;;6316380;28;20305;-70
2023/06/03 13:03:25;;;;;;;1.17;1.10;;;;;;;;;;6334588;28;20547;-70
2023/06/03 13:06:30;;;;;;;1.20;1.20;;;;;;;;;;6334163;28;20285;-69
2023/06/03 13:09:37;;;;;;;1.42;1.38;;;;;;;;;;6316413;28;20290;-70
2023/06/03 13:12:43;;;;;;;1.23;1.23;;;;;;;;;;6326398;28;20369;-70
2023/06/03 13:15:49;;;;;;;1.35;1.35;;;;;;;;;;6334154;28;20476;-70
2023/06/03 13:18:54;;;;;;;8.98;1.40;;;;;;;;;;6335069;28;20290;-70
2023/06/03 13:21:59;;;;;;;6.13;1.30;;;;;;;;;;6334349;28;20597;-70
2023/06/03 13:25:07;;;;;;;2.92;1.30;;;;;;;;;;6333858;28;20309;-70
2023/06/03 13:28:13;;;;;;;4.35;1.23;;;;;;;;;;6334605;28;20313;-69
2023/06/03 13:31:18;;;;;;;1.25;1.25;;;;;;;;;;6334490;28;20298;-69
2023/06/03 13:34:24;;;;;;;2.72;1.20;;;;;;;;;;6334047;28;20297;-70
2023/06/03 13:37:29;;;;;;;3.67;1.20;;;;;;;;;;6316526;28;20289;-69
2023/06/03 13:40:36;;;;;;;1.40;1.30;;;;;;;;;;6333903;28;20289;-70
2023/06/03 13:43:41;;;;;;;1.10;1.10;;;;;;;;;;6334402;28;20289;-69
2023/06/03 13:46:50;;;;;;;1.95;1.27;;;;;;;;;;6339246;28;20602;-69
2023/06/03 13:49:56;;;;;;;2.17;1.10;;;;;;;;;;6339208;28;20286;-72
2023/06/03 13:53:01;;;;;;;4.47;1.35;;;;;;;;;;6339734;28;20309;-70
2023/06/03 13:56:08;;;;;;;1.00;1.00;;;;;;;;;;6339263;28;20285;-70
2023/06/03 13:59:13;;;;;;;1.00;1.00;;;;;;;;;;6338586;28;20289;-71
2023/06/03 14:02:19;;;;;;;1.67;1.30;;;;;;;;;;6340887;28;20294;-70
2023/06/03 14:05:24;;;;;;;1.67;1.10;;;;;;;;;;6339340;28;20565;-69
2023/06/03 14:08:29;;;;;;;1.10;1.10;;;;;;;;;;6339494;28;20285;-70
2023/06/03 14:11:36;;;;;;;2.47;1.20;;;;;;;;;;6330300;28;20372;-70
2023/06/03 14:14:42;;;;;;;3.95;1.02;;;;;;;;;;6337084;28;20289;-70
2023/06/03 14:17:47;;;;;;;1.30;1.30;;;;;;;;;;6338508;28;20266;-71
2023/06/03 14:20:52;;;;;;;1.95;1.50;;;;;;;;;;6338139;28;20294;-69
2023/06/03 14:23:58;;;;;;;5.88;1.30;;;;;;;;;;6338448;28;20565;-71
2023/06/03 14:27:05;;;;;;;2.05;1.40;;;;;;;;;;6338044;28;20313;-70
2023/06/03 14:30:11;;;;;;;1.20;1.17;;;;;;;;;;6337499;28;20309;-71
2023/06/03 14:33:17;;;;;;;4.75;1.63;;;;;;;;;;6338495;28;20290;-71
2023/06/03 14:36:22;;;;;;;2.92;1.10;;;;;;;;;;6337919;28;20294;-70
2023/06/03 14:39:28;;;;;;;1.10;1.10;;;;;;;;;;6337923;28;20310;-70
2023/06/03 14:42:36;;;;;;;1.65;1.48;;;;;;;;;;6338154;28;20594;-70
2023/06/03 14:45:42;;;;;;;1.85;1.40;;;;;;;;;;6338119;28;20298;-70
2023/06/03 14:48:47;;;;;;;2.10;2.00;;;;;;;;;;6337655;28;20431;-70
2023/06/03 14:51:53;;;;;;;2.63;1.42;;;;;;;;;;6337339;28;20297;-71
2023/06/03 14:54:58;;;;;;;5.03;1.88;;;;;;;;;;6336917;28;20289;-70
2023/06/03 14:58:05;;;;;;;1.27;1.17;;;;;;;;;;6318991;28;20289;-70
2023/06/03 15:01:11;;;;;;;1.20;1.13;;;;;;;;;;6337818;28;20289;-70
2023/06/03 15:04:16;;;;;;;1.85;1.42;;;;;;;;;;6336551;28;20302;-70
2023/06/03 15:07:21;;;;;;;0.90;0.90;;;;;;;;;;6338030;28;20289;-70
2023/06/03 15:10:27;;;;;;;2.10;1.15;;;;;;;;;;6332647;28;20294;-70
2023/06/03 15:13:33;;;;;;;1.52;1.20;;;;;;;;;;6334935;28;20297;-70
2023/06/03 15:16:39;;;;;;;1.30;1.20;;;;;;;;;;6336623;28;20322;-69
2023/06/03 15:19:44;;;;;;;1.10;1.00;;;;;;;;;;6337289;28;20336;-70
2023/06/03 15:22:50;;;;;;;1.30;1.30;;;;;;;;;;6337044;28;20297;-69
2023/06/03 15:25:55;;;;;;;2.72;1.13;;;;;;;;;;6336875;28;20290;-72
2023/06/03 15:29:02;;;;;;;1.20;1.20;;;;;;;;;;6337130;28;20431;-71
2023/06/03 15:32:08;;;;;;;2.58;1.13;;;;;;;;;;6336301;28;20294;-71
2023/06/03 15:35:13;;;;;;;1.25;1.25;;;;;;;;;;6336477;28;20297;-70
2023/06/03 15:38:18;;;;;;;1.48;1.40;;;;;;;;;;6336571;28;20293;-71
2023/06/03 15:41:24;;;;;;;2.05;1.15;;;;;;;;;;6336097;28;20293;-70
2023/06/03 15:44:31;;;;;;;1.10;1.10;;;;;;;;;;6336508;28;20289;-70
2023/06/03 15:47:36;;;;;;;1.30;1.30;;;;;;;;;;6336067;28;20294;-70
2023/06/03 15:50:41;;;;;;;1.90;1.25;;;;;;;;;;6336255;28;20298;-69
2023/06/03 15:53:46;;;;;;;2.47;1.40;;;;;;;;;;6336798;28;20285;-70
2023/06/03 15:56:53;;;;;;;1.40;1.30;;;;;;;;;;6336072;28;20297;-70
2023/06/03 15:59:59;;;;;;;3.58;1.20;;;;;;;;;;6335934;28;20543;-69
2023/06/03 16:03:05;;;;;;;3.40;2.63;;;;;;;;;;6335853;28;20290;-70
2023/06/03 16:06:11;;;;;;;1.20;1.20;;;;;;;;;;6335567;28;20285;-70
2023/06/03 16:09:16;;;;;;;2.85;1.33;;;;;;;;;;6335895;28;20297;-70
2023/06/03 16:12:22;;;;;;;2.78;1.50;;;;;;;;;;6328058;28;20310;-71
2023/06/03 16:15:28;;;;;;;2.90;1.30;;;;;;;;;;6335368;28;20298;-71
2023/06/03 16:18:34;;;;;;;1.85;1.35;;;;;;;;;;6335903;28;20282;-70
2023/06/03 16:21:39;;;;;;;4.75;1.60;;;;;;;;;;6334737;28;20294;-69
2023/06/03 16:24:44;;;;;;;1.48;1.20;;;;;;;;;;6334916;28;20294;-70
2023/06/03 16:27:50;;;;;;;1.55;1.55;;;;;;;;;;6335783;28;20555;-70
2023/06/03 16:30:57;;;;;;;4.60;1.80;;;;;;;;;;6334895;28;20293;-70
2023/06/03 16:34:04;;;;;;;1.70;1.38;;;;;;;;;;6335576;28;20298;-70
2023/06/03 16:37:09;;;;;;;9.05;1.70;;;;;;;;;;6335021;28;20298;-70
2023/06/03 16:40:14;;;;;;;3.00;2.80;;;;;;;;;;6334465;28;20302;-70
2023/06/03 16:43:20;;;;;;;2.67;1.40;;;;;;;;;;6335332;28;20289;-69
2023/06/03 16:46:28;;;;;;;3.92;3.72;;;;;;;;;;6334243;28;20302;-71
2023/06/03 16:49:33;;;;;;;4.95;1.98;;;;;;;;;;6334494;28;20297;-70
2023/06/03 16:52:39;;;;;;;2.28;1.60;;;;;;;;;;6335082;28;20285;-70
2023/06/03 16:55:44;;;;;;;3.42;1.75;;;;;;;;;;6334433;28;20297;-70
2023/06/03 16:58:49;;;;;;;1.20;1.17;;;;;;;;;;6334842;28;20431;-70
2023/06/03 17:01:56;;;;;;;2.20;1.90;;;;;;;;;;6334014;28;20293;-69
2023/06/03 17:05:03;;;;;;;2.25;1.40;;;;;;;;;;6334202;28;20562;-70
2023/06/03 17:08:08;;;;;;;1.20;1.10;;;;;;;;;;6334557;28;20298;-71
2023/06/03 17:11:14;;;;;;;1.45;1.30;;;;;;;;;;6326170;28;20285;-70
2023/06/03 17:14:19;;;;;;;2.03;1.05;;;;;;;;;;6334172;28;20301;-70
2023/06/03 17:17:25;;;;;;;1.08;1.08;;;;;;;;;;6334800;28;20370;-70
2023/06/03 17:20:31;;;;;;;1.50;1.50;;;;;;;;;;6333674;28;20289;-71
2023/06/03 17:23:36;;;;;;;2.88;1.35;;;;;;;;;;6315885;28;20285;-70
2023/06/03 17:26:41;;;;;;;2.08;1.48;;;;;;;;;;6334259;28;20298;-70
2023/06/03 17:29:47;;;;;;;3.80;1.77;;;;;;;;;;6333496;28;20589;-71
2023/06/03 17:32:54;;;;;;;4.72;1.73;;;;;;;;;;6334093;28;20511;-71
2023/06/03 17:35:59;;;;;;;2.88;1.70;;;;;;;;;;6333365;28;20295;-71
2023/06/03 17:39:04;;;;;;;2.30;1.60;;;;;;;;;;6334928;28;20297;-70
2023/06/03 17:42:09;;;;;;;1.50;1.50;;;;;;;;;;6333798;28;20290;-71
2023/06/03 17:45:15;;;;;;;6.00;1.90;;;;;;;;;;6333938;28;20389;-70
2023/06/03 17:48:21;;;;;;;5.65;1.33;;;;;;;;;;6334248;28;20297;-70
2023/06/03 17:51:27;;;;;;;2.78;1.33;;;;;;;;;;6333523;28;20297;-70
2023/06/03 17:54:32;;;;;;;3.72;1.52;;;;;;;;;;6333255;28;20289;-70
2023/06/03 17:57:45;;;;;;;1.92;1.50;;;;;;;;;;6334140;28;20282;-71
2023/06/03 18:00:51;;;;;;;2.70;1.35;;;;;;;;;;6333154;28;20305;-70
2023/06/03 18:03:58;;;;;;;2.97;1.90;;;;;;;;;;6333367;28;20309;-71
2023/06/03 18:07:03;;;;;;;6.05;5.30;;;;;;;;;;6333552;28;20458;-69
2023/06/03 18:10:10;;;;;;;14.05;9.73;;;;;;;;;;6331283;28;20474;-70
2023/06/03 18:13:15;;;;;;;7.15;6.00;;;;;;;;;;6328374;28;20603;-70
2023/06/03 18:16:20;;;;;;;4.63;2.88;;;;;;;;;;6332856;28;20498;-71
2023/06/03 18:19:27;;;;;;;5.60;1.80;;;;;;;;;;6333124;28;20294;-69
2023/06/03 18:22:33;;;;;;;1.20;1.20;;;;;;;;;;6334554;28;20567;-70
2023/06/03 18:25:41;;;;;;;2.72;1.73;;;;;;;;;;6333159;28;20314;-69
2023/06/03 18:28:46;;;;;;;1.73;1.63;;;;;;;;;;6315925;28;20294;-70
2023/06/03 18:31:52;;;;;;;1.75;1.75;;;;;;;;;;6334980;28;20542;-70
2023/06/03 18:34:58;;;;;;;1.58;1.58;;;;;;;;;;6338321;28;22173;-70
2023/06/03 18:38:04;;;;;;;2.05;1.60;;;;;;;;;;6338423;28;20290;-71
2023/06/03 18:41:12;;;;;;;3.55;3.20;;;;;;;;;;6338697;28;20297;-69
2023/06/03 18:44:18;;;;;;;3.88;2.20;;;;;;;;;;6339314;28;20290;-72